Time;durP1;ratioP1;P1;durP2;ratioP2;P2;SDS_P1;SDS_P2;PMS_P1;PMS_P2;Temp;Humidity;BMP_temperature;BMP_pressure;BME280_temperature;BME280_humidity;BME280_pressure;Samples;Min_cycle;Max_cycle;Signal;HPM_P1;HPM_P2
2023/09/18 00:00:50;;;;;;;17.95;16.00;;;17.00;99.90;;;;;;5034573;28;20045;-71
2023/09/18 00:03:20;;;;;;;20.83;16.35;;;17.00;99.90;;;;;;5035007;28;20124;-72
2023/09/18 00:05:49;;;;;;;18.60;13.45;;;17.00;99.90;;;;;;5034129;28;20038;-72
2023/09/18 00:08:16;;;;;;;28.58;16.45;;;17.00;99.90;;;;;;5032820;28;20128;-72
2023/09/18 00:10:46;;;;;;;19.15;15.50;;;17.00;99.90;;;;;;5034576;28;20049;-72
2023/09/18 00:13:11;;;;;;;34.30;19.25;;;17.00;99.90;;;;;;5033719;28;20057;-72
2023/09/18 00:15:38;;;;;;;26.17;17.33;;;17.00;99.90;;;;;;5033817;28;20488;-72
2023/09/18 00:18:04;;;;;;;82.65;21.08;;;16.90;99.90;;;;;;5033840;28;20053;-72
2023/09/18 00:20:29;;;;;;;79.97;19.95;;;16.90;99.90;;;;;;5033774;28;20041;-71
2023/09/18 00:22:55;;;;;;;117.03;21.83;;;16.80;99.90;;;;;;5033646;28;20128;-72
2023/09/18 00:25:22;;;;;;;131.07;26.45;;;16.80;99.90;;;;;;5033785;28;20041;-71
2023/09/18 00:27:48;;;;;;;131.45;27.90;;;16.80;99.90;;;;;;5033628;28;20048;-72
2023/09/18 00:30:14;;;;;;;168.40;31.83;;;16.70;99.90;;;;;;5033677;28;20081;-72
2023/09/18 00:32:40;;;;;;;92.18;22.80;;;16.70;99.90;;;;;;5016164;28;20053;-72
2023/09/18 00:35:06;;;;;;;93.45;23.42;;;16.70;99.90;;;;;;5033893;28;20065;-71
2023/09/18 00:37:31;;;;;;;90.80;20.88;;;16.60;99.90;;;;;;5033484;28;20092;-71
2023/09/18 00:39:57;;;;;;;213.57;33.50;;;16.60;99.90;;;;;;5033271;28;20080;-71
2023/09/18 00:42:24;;;;;;;195.10;30.00;;;16.60;99.90;;;;;;5033798;28;20056;-72
2023/09/18 00:44:50;;;;;;;178.95;31.83;;;16.50;99.90;;;;;;5016288;28;20053;-72
2023/09/18 00:47:16;;;;;;;72.38;20.85;;;16.50;99.90;;;;;;5033450;28;20107;-72
2023/09/18 00:49:46;;;;;;;95.30;23.05;;;16.50;99.90;;;;;;5032317;28;20068;-72
2023/09/18 00:52:12;;;;;;;142.60;30.25;;;16.50;99.90;;;;;;5032347;28;20045;-71
2023/09/18 00:54:40;;;;;;;53.10;19.23;;;16.50;99.90;;;;;;5032183;28;20486;-71
2023/09/18 00:57:06;;;;;;;78.72;26.55;;;16.50;99.90;;;;;;5033466;28;20055;-71
2023/09/18 00:59:33;;;;;;;33.85;18.77;;;16.50;99.90;;;;;;5033379;28;20121;-71
2023/09/18 01:01:59;;;;;;;37.08;24.20;;;16.50;99.90;;;;;;5033556;28;20056;-72
2023/09/18 01:04:26;;;;;;;30.02;22.02;;;16.60;99.90;;;;;;5032896;28;20049;-71
2023/09/18 01:06:52;;;;;;;36.20;24.25;;;16.60;99.90;;;;;;5033127;28;20171;-70
2023/09/18 01:09:19;;;;;;;26.90;22.13;;;16.60;99.90;;;;;;5033399;28;20068;-73
2023/09/18 01:12:28;;;;;;;26.83;21.63;;;16.60;99.90;;;;;;5031717;28;20142;-73
2023/09/18 01:15:07;;;;;;;27.75;24.83;;;16.70;99.90;;;;;;5033407;28;20095;-73
2023/09/18 01:17:38;;;;;;;24.27;21.85;;;16.70;99.90;;;;;;5033482;28;20049;-73
2023/09/18 01:20:05;;;;;;;26.88;24.05;;;16.70;99.90;;;;;;5033246;28;20042;-73
2023/09/18 01:22:32;;;;;;;30.08;23.85;;;16.60;99.90;;;;;;5031826;28;20053;-73
2023/09/18 01:24:57;;;;;;;26.27;23.40;;;16.70;99.90;;;;;;5032016;28;20382;-73
2023/09/18 01:27:23;;;;;;;24.30;21.15;;;16.70;99.90;;;;;;5032715;28;20046;-73
2023/09/18 01:29:49;;;;;;;22.52;20.08;;;16.70;99.90;;;;;;5032677;28;20144;-71
2023/09/18 01:32:15;;;;;;;26.83;22.67;;;16.70;99.90;;;;;;5033042;28;20049;-71
2023/09/18 01:34:46;;;;;;;23.92;21.38;;;16.60;99.90;;;;;;5032695;28;20037;-71
2023/09/18 01:37:13;;;;;;;26.25;22.83;;;16.70;99.90;;;;;;5031092;28;20561;-72
2023/09/18 01:39:39;;;;;;;26.73;21.83;;;16.70;99.90;;;;;;5032539;28;20045;-71
2023/09/18 01:42:06;;;;;;;25.50;22.40;;;16.70;99.90;;;;;;5032450;28;20057;-71
2023/09/18 01:44:38;;;;;;;24.48;21.88;;;16.80;99.90;;;;;;5032599;28;20054;-71
2023/09/18 01:47:05;;;;;;;27.50;22.73;;;16.70;99.90;;;;;;5032948;28;20183;-72
2023/09/18 01:49:36;;;;;;;32.08;25.23;;;16.80;99.90;;;;;;5032586;28;20095;-71
2023/09/18 01:52:03;;;;;;;26.58;23.67;;;16.80;99.90;;;;;;5031884;28;20041;-72
2023/09/18 01:54:29;;;;;;;26.63;23.38;;;16.80;99.90;;;;;;5033025;28;20045;-72
2023/09/18 01:56:55;;;;;;;24.10;20.90;;;16.80;99.90;;;;;;5032452;28;20123;-72
2023/09/18 01:59:22;;;;;;;26.45;23.65;;;16.70;99.90;;;;;;5032059;28;20037;-73
2023/09/18 02:01:49;;;;;;;28.02;24.73;;;16.70;99.90;;;;;;5031501;28;20486;-73
2023/09/18 02:04:15;;;;;;;28.67;25.60;;;16.70;99.90;;;;;;5036382;28;20088;-73
2023/09/18 02:06:41;;;;;;;23.95;21.45;;;16.70;99.90;;;;;;5036029;28;20049;-73
2023/09/18 02:09:10;;;;;;;24.17;21.58;;;16.70;99.90;;;;;;5035803;28;20065;-73
2023/09/18 02:11:40;;;;;;;27.48;24.60;;;16.60;99.90;;;;;;5036226;28;20132;-72
2023/09/18 02:14:07;;;;;;;26.08;23.38;;;16.60;99.90;;;;;;5036078;28;20099;-72
2023/09/18 02:16:37;;;;;;;24.85;21.98;;;16.70;99.90;;;;;;5036118;28;20050;-72
2023/09/18 02:19:03;;;;;;;22.38;20.13;;;16.60;99.90;;;;;;5036137;28;20608;-71
2023/09/18 02:21:31;;;;;;;20.73;18.63;;;16.70;99.90;;;;;;5036107;28;20077;-72
2023/09/18 02:23:56;;;;;;;21.70;19.35;;;16.60;99.90;;;;;;5035611;28;20053;-72
2023/09/18 02:26:23;;;;;;;25.02;20.83;;;16.70;99.90;;;;;;5034844;28;20381;-71
2023/09/18 02:28:51;;;;;;;20.77;18.80;;;16.70;99.90;;;;;;5035895;28;20042;-71
2023/09/18 02:31:17;;;;;;;19.70;17.70;;;16.70;99.90;;;;;;5036577;28;20048;-71
2023/09/18 02:33:43;;;;;;;23.58;21.08;;;16.70;99.90;;;;;;5018219;28;20045;-71
2023/09/18 02:36:09;;;;;;;24.20;21.80;;;16.70;99.90;;;;;;5034698;28;20046;-71
2023/09/18 02:38:34;;;;;;;17.65;15.88;;;16.70;99.90;;;;;;5035568;28;20472;-72
2023/09/18 02:41:00;;;;;;;18.75;16.80;;;16.70;99.90;;;;;;5035715;28;20095;-71
2023/09/18 02:43:26;;;;;;;24.55;21.92;;;16.70;99.90;;;;;;5035471;28;20049;-71
2023/09/18 02:45:52;;;;;;;28.00;25.00;;;16.80;99.90;;;;;;5034355;28;20115;-71
2023/09/18 02:48:19;;;;;;;23.92;21.35;;;16.70;99.90;;;;;;5035592;28;20485;-72
2023/09/18 02:50:45;;;;;;;25.35;22.65;;;16.70;99.90;;;;;;5035483;28;20057;-72
2023/09/18 02:53:37;;;;;;;23.77;21.27;;;16.80;99.90;;;;;;5036116;28;20053;-71
2023/09/18 02:56:02;;;;;;;24.67;22.27;;;16.70;99.90;;;;;;5033042;28;20140;-72
2023/09/18 02:58:30;;;;;;;27.02;24.13;;;16.70;99.90;;;;;;5035147;28;20092;-72
2023/09/18 03:00:58;;;;;;;24.23;21.73;;;17.00;99.90;;;;;;5017762;28;20053;-72
2023/09/18 03:03:24;;;;;;;24.65;22.10;;;16.70;99.90;;;;;;5034366;28;20060;-71
2023/09/18 03:05:50;;;;;;;24.95;22.38;;;16.70;99.90;;;;;;5035019;28;20478;-72
2023/09/18 03:08:16;;;;;;;28.10;24.70;;;16.60;99.90;;;;;;5034967;28;20049;-72
2023/09/18 03:10:43;;;;;;;24.83;22.38;;;16.60;99.90;;;;;;5035618;28;20037;-72
2023/09/18 03:13:10;;;;;;;25.98;23.00;;;16.70;99.90;;;;;;5034504;28;20057;-72
2023/09/18 03:15:37;;;;;;;25.30;22.60;;;16.70;99.90;;;;;;5034873;28;20172;-72
2023/09/18 03:18:04;;;;;;;24.90;21.15;;;16.70;99.90;;;;;;5035056;28;20084;-72
2023/09/18 03:20:30;;;;;;;26.20;22.38;;;16.70;99.90;;;;;;5035699;28;20179;-71
2023/09/18 03:23:01;;;;;;;23.67;21.33;;;16.70;99.90;;;;;;5034734;28;20069;-72
2023/09/18 03:25:27;;;;;;;24.10;21.50;;;16.60;99.90;;;;;;5035083;28;20068;-72
2023/09/18 03:27:54;;;;;;;22.92;20.65;;;16.70;99.90;;;;;;5035391;28;20049;-72
2023/09/18 03:30:23;;;;;;;23.40;20.58;;;16.70;99.90;;;;;;5034729;28;20045;-72
2023/09/18 03:32:49;;;;;;;25.40;22.65;;;16.70;99.90;;;;;;5033966;28;20055;-71
2023/09/18 03:35:17;;;;;;;22.42;20.10;;;16.70;99.90;;;;;;5034689;28;20049;-72
2023/09/18 03:37:55;;;;;;;22.48;20.13;;;16.70;99.90;;;;;;5033880;28;20042;-72
2023/09/18 03:40:22;;;;;;;21.83;19.17;;;16.70;99.90;;;;;;5034628;28;20120;-72
2023/09/18 03:42:48;;;;;;;21.05;18.55;;;16.70;99.90;;;;;;5034563;28;20045;-72
2023/09/18 03:45:15;;;;;;;26.05;21.20;;;16.70;99.90;;;;;;5034956;28;20084;-72
2023/09/18 03:47:41;;;;;;;24.27;21.75;;;16.70;99.90;;;;;;5033731;28;20116;-72
2023/09/18 03:50:08;;;;;;;24.52;19.98;;;16.70;99.90;;;;;;5016470;28;20064;-72
2023/09/18 03:52:35;;;;;;;21.63;17.75;;;16.70;99.90;;;;;;5034441;28;20049;-72
2023/09/18 03:55:01;;;;;;;26.70;22.00;;;16.70;99.90;;;;;;5034833;28;20072;-71
2023/09/18 03:57:27;;;;;;;19.88;17.63;;;16.70;99.90;;;;;;5034494;28;20050;-71
2023/09/18 03:59:52;;;;;;;23.35;20.48;;;16.70;99.90;;;;;;5034406;28;20518;-71
2023/09/18 04:02:18;;;;;;;24.25;19.38;;;16.80;99.90;;;;;;5034152;28;20105;-72
2023/09/18 04:04:44;;;;;;;24.83;20.60;;;16.80;99.90;;;;;;5016486;28;20476;-72
2023/09/18 04:07:11;;;;;;;23.30;20.65;;;16.80;99.90;;;;;;5033734;28;20088;-71
2023/09/18 04:09:37;;;;;;;24.17;21.20;;;16.80;99.90;;;;;;5034460;28;20061;-72
2023/09/18 04:12:06;;;;;;;22.92;20.58;;;16.80;99.90;;;;;;5033989;28;20038;-71
2023/09/18 04:14:33;;;;;;;22.83;20.27;;;16.80;99.90;;;;;;5033389;28;20132;-72
2023/09/18 04:17:02;;;;;;;21.65;18.90;;;16.80;99.90;;;;;;5033840;28;20049;-72
2023/09/18 04:19:28;;;;;;;19.27;17.27;;;16.80;99.90;;;;;;5032852;28;20112;-72
2023/09/18 04:21:54;;;;;;;21.30;17.98;;;16.80;99.90;;;;;;5033766;28;20084;-71
2023/09/18 04:24:21;;;;;;;21.65;18.40;;;16.80;99.90;;;;;;5032950;28;20451;-72
2023/09/18 04:26:46;;;;;;;19.95;18.00;;;16.80;99.90;;;;;;5033713;28;20049;-73
2023/09/18 04:29:12;;;;;;;17.40;15.68;;;16.80;99.90;;;;;;5033825;28;20045;-72
2023/09/18 04:31:38;;;;;;;21.23;18.63;;;16.90;99.90;;;;;;5033544;28;20374;-71
2023/09/18 04:34:04;;;;;;;22.52;19.35;;;16.90;99.90;;;;;;5033415;28;20037;-72
2023/09/18 04:36:30;;;;;;;20.27;18.23;;;17.00;99.90;;;;;;5033560;28;20476;-72
2023/09/18 04:38:55;;;;;;;22.77;18.30;;;16.90;99.90;;;;;;5033197;28;20124;-71
2023/09/18 04:41:21;;;;;;;21.35;18.65;;;17.00;99.90;;;;;;5032827;28;20089;-72
2023/09/18 04:43:47;;;;;;;20.52;18.20;;;17.00;99.90;;;;;;5033493;28;20071;-71
2023/09/18 04:46:13;;;;;;;25.08;19.10;;;17.00;99.90;;;;;;5033195;28;20041;-72
2023/09/18 04:48:39;;;;;;;20.42;17.98;;;17.00;99.90;;;;;;5032727;28;20103;-72
2023/09/18 04:51:04;;;;;;;21.15;18.60;;;17.10;99.90;;;;;;5033234;28;20072;-72
2023/09/18 04:53:32;;;;;;;20.65;18.17;;;17.10;99.90;;;;;;5033250;28;20499;-73
2023/09/18 04:55:58;;;;;;;23.25;20.58;;;17.20;99.90;;;;;;5033350;28;20045;-71
2023/09/18 04:58:24;;;;;;;23.30;19.02;;;17.20;99.90;;;;;;5033632;28;20489;-71
2023/09/18 05:00:57;;;;;;;20.77;18.42;;;17.20;99.90;;;;;;5033198;28;20103;-71
2023/09/18 05:03:22;;;;;;;25.70;20.33;;;17.20;99.90;;;;;;5033093;28;20482;-71
2023/09/18 05:05:48;;;;;;;21.90;19.42;;;17.20;99.90;;;;;;5031823;28;20056;-70
2023/09/18 05:08:14;;;;;;;19.98;17.30;;;17.20;99.90;;;;;;5033293;28;20084;-70
2023/09/18 05:10:40;;;;;;;20.45;17.13;;;17.30;99.90;;;;;;5033330;28;20406;-71
2023/09/18 05:13:06;;;;;;;20.85;18.00;;;17.30;99.90;;;;;;5032394;28;20076;-70
2023/09/18 05:15:33;;;;;;;20.05;17.55;;;17.30;99.90;;;;;;5032733;28;20053;-71
2023/09/18 05:18:00;;;;;;;19.42;17.33;;;17.40;99.90;;;;;;5032718;28;20484;-72
2023/09/18 05:20:27;;;;;;;22.50;17.13;;;17.40;99.90;;;;;;5032297;28;20033;-70
2023/09/18 05:22:55;;;;;;;18.02;16.10;;;17.40;99.90;;;;;;5032686;28;20123;-71
2023/09/18 05:25:22;;;;;;;20.38;16.08;;;17.40;99.90;;;;;;5031856;28;20052;-71
2023/09/18 05:27:49;;;;;;;17.60;14.48;;;17.40;99.90;;;;;;5031153;28;20555;-71
2023/09/18 05:30:21;;;;;;;19.02;16.38;;;17.40;99.90;;;;;;5032192;28;20096;-70
2023/09/18 05:32:48;;;;;;;20.77;17.90;;;17.50;99.90;;;;;;5032496;28;20079;-70
2023/09/18 05:35:14;;;;;;;21.17;17.25;;;17.50;99.90;;;;;;5031967;28;20498;-70
2023/09/18 05:37:46;;;;;;;21.35;17.05;;;17.50;99.90;;;;;;5031637;28;20053;-70
2023/09/18 05:40:13;;;;;;;22.15;17.52;;;17.50;99.90;;;;;;5032587;28;20045;-71
2023/09/18 05:42:42;;;;;;;17.25;14.80;;;17.60;99.90;;;;;;5032201;28;20056;-71
2023/09/18 05:45:09;;;;;;;17.80;16.00;;;17.60;99.90;;;;;;5032058;28;20046;-71
2023/09/18 05:47:35;;;;;;;18.58;15.10;;;17.60;99.90;;;;;;5032064;28;20133;-71
2023/09/18 05:50:06;;;;;;;19.65;15.85;;;17.60;99.90;;;;;;5031117;28;20450;-71
2023/09/18 05:52:33;;;;;;;17.98;14.65;;;17.70;99.90;;;;;;5031093;28;20060;-71
2023/09/18 05:54:58;;;;;;;16.90;15.13;;;17.80;99.90;;;;;;5032197;28;20071;-71
2023/09/18 05:57:24;;;;;;;17.98;14.02;;;17.70;99.90;;;;;;5031895;28;20480;-71
2023/09/18 05:59:50;;;;;;;17.08;14.55;;;17.70;99.90;;;;;;5032004;28;20053;-70
2023/09/18 06:02:16;;;;;;;18.35;14.02;;;17.90;99.90;;;;;;5032072;28;20053;-70
2023/09/18 06:04:43;;;;;;;16.00;12.43;;;17.80;99.90;;;;;;5030828;28;20544;-71
2023/09/18 06:07:08;;;;;;;15.52;12.48;;;17.90;99.90;;;;;;5032045;28;20057;-71
2023/09/18 06:09:34;;;;;;;15.38;13.77;;;17.90;99.90;;;;;;5032390;28;20100;-72
2023/09/18 06:12:00;;;;;;;16.67;13.85;;;18.00;99.90;;;;;;5031030;28;20080;-71
2023/09/18 06:14:26;;;;;;;15.63;12.43;;;18.00;99.90;;;;;;5032099;28;20054;-71
2023/09/18 06:16:51;;;;;;;18.25;14.18;;;18.10;99.90;;;;;;5032491;28;20496;-70
2023/09/18 06:19:17;;;;;;;17.67;12.57;;;18.10;99.90;;;;;;5031938;28;20041;-71
2023/09/18 06:21:44;;;;;;;15.57;12.32;;;18.10;99.90;;;;;;5032168;28;20052;-71
2023/09/18 06:24:09;;;;;;;15.23;11.68;;;18.20;99.90;;;;;;5032769;28;20049;-71
2023/09/18 06:26:35;;;;;;;13.77;11.07;;;18.20;99.90;;;;;;5031909;28;20061;-71
2023/09/18 06:29:02;;;;;;;13.45;10.32;;;18.30;99.90;;;;;;5032641;28;20136;-72
2023/09/18 06:31:28;;;;;;;12.05;10.25;;;18.30;99.90;;;;;;5030814;28;20052;-71
2023/09/18 06:33:54;;;;;;;14.15;10.23;;;18.30;99.90;;;;;;5032001;28;20044;-71
2023/09/18 06:36:20;;;;;;;11.32;9.25;;;18.40;99.90;;;;;;5031910;28;20045;-71
2023/09/18 06:38:46;;;;;;;11.65;9.10;;;18.40;99.90;;;;;;5032415;28;20446;-71
2023/09/18 06:41:12;;;;;;;11.95;8.95;;;18.50;99.90;;;;;;5032005;28;20053;-71
2023/09/18 06:43:37;;;;;;;13.60;11.05;;;18.50;99.90;;;;;;5032199;28;20065;-71
2023/09/18 06:46:03;;;;;;;10.43;9.27;;;18.60;99.90;;;;;;5031844;28;20393;-71
2023/09/18 06:48:32;;;;;;;10.10;9.13;;;18.50;99.90;;;;;;5031961;28;20057;-71
2023/09/18 06:50:59;;;;;;;14.73;10.52;;;18.50;99.90;;;;;;5035465;28;20053;-71
2023/09/18 06:53:27;;;;;;;15.10;10.00;;;18.50;99.90;;;;;;5035419;28;20057;-70
2023/09/18 06:55:53;;;;;;;15.80;9.90;;;18.60;99.90;;;;;;5035385;28;20045;-70
2023/09/18 06:58:19;;;;;;;16.15;10.45;;;18.50;99.90;;;;;;5035373;28;20045;-70
2023/09/18 07:00:45;;;;;;;14.38;9.52;;;18.60;99.90;;;;;;5035496;28;20057;-70
2023/09/18 07:03:11;;;;;;;12.52;9.68;;;18.60;99.90;;;;;;5035153;28;20479;-70
2023/09/18 07:05:37;;;;;;;11.23;8.88;;;18.70;99.90;;;;;;5034624;28;20441;-75
2023/09/18 07:08:05;;;;;;;15.23;9.85;;;18.60;99.90;;;;;;5035054;28;20128;-71
2023/09/18 07:10:32;;;;;;;13.38;10.63;;;18.70;99.90;;;;;;5035331;28;20049;-71
2023/09/18 07:12:58;;;;;;;19.45;10.80;;;18.60;99.90;;;;;;5035805;28;20084;-72
2023/09/18 07:15:24;;;;;;;15.93;12.43;;;18.60;99.90;;;;;;5035055;28;20053;-70
2023/09/18 07:17:50;;;;;;;42.42;14.90;;;18.60;99.90;;;;;;5035259;28;20129;-71
2023/09/18 07:20:16;;;;;;;33.33;14.57;;;18.60;99.90;;;;;;5034824;28;20049;-71
2023/09/18 07:22:46;;;;;;;28.38;14.88;;;18.50;99.90;;;;;;5035015;28;20054;-71
2023/09/18 07:25:12;;;;;;;24.42;14.88;;;18.50;99.90;;;;;;5034809;28;20046;-71
2023/09/18 07:27:43;;;;;;;22.35;15.02;;;18.40;99.90;;;;;;5034715;28;20111;-71
2023/09/18 07:30:16;;;;;;;27.70;16.88;;;18.50;99.90;;;;;;5034230;28;20474;-70
2023/09/18 07:32:42;;;;;;;18.50;13.13;;;18.40;99.90;;;;;;5034352;28;20085;-70
2023/09/18 07:35:09;;;;;;;17.15;13.57;;;18.40;99.90;;;;;;5033792;28;20049;-72
2023/09/18 07:37:35;;;;;;;18.52;15.05;;;18.50;99.90;;;;;;5034505;28;20057;-71
2023/09/18 07:40:02;;;;;;;16.70;14.38;;;18.50;99.90;;;;;;5034395;28;20041;-72
2023/09/18 07:42:28;;;;;;;18.35;14.02;;;18.50;99.90;;;;;;5034437;28;20053;-71
2023/09/18 07:44:54;;;;;;;19.75;14.05;;;18.40;99.90;;;;;;5034270;28;20045;-71
2023/09/18 07:47:20;;;;;;;19.13;14.27;;;18.50;99.90;;;;;;5034204;28;20053;-70
2023/09/18 07:49:46;;;;;;;15.30;13.35;;;18.40;99.90;;;;;;5016648;28;20037;-71
2023/09/18 07:52:12;;;;;;;15.27;13.52;;;18.30;99.90;;;;;;5034573;28;20049;-71
2023/09/18 07:54:37;;;;;;;14.55;11.63;;;18.50;99.90;;;;;;5034130;28;20046;-71
2023/09/18 07:57:03;;;;;;;14.10;12.63;;;18.50;99.90;;;;;;5034190;28;20454;-71
2023/09/18 07:59:30;;;;;;;16.17;12.50;;;18.40;99.90;;;;;;5034374;28;20404;-71
2023/09/18 08:01:56;;;;;;;14.38;12.55;;;18.40;99.90;;;;;;5032642;28;20455;-72
2023/09/18 08:04:21;;;;;;;13.05;11.65;;;18.60;99.90;;;;;;5034159;28;20057;-72
2023/09/18 08:06:47;;;;;;;15.07;12.65;;;18.60;99.90;;;;;;5016652;28;20053;-72
2023/09/18 08:09:15;;;;;;;11.52;10.40;;;18.70;99.90;;;;;;5033541;28;20112;-72
2023/09/18 08:11:42;;;;;;;12.75;10.77;;;18.70;99.90;;;;;;5033906;28;20049;-72
2023/09/18 08:14:09;;;;;;;12.43;10.48;;;18.70;99.90;;;;;;5034496;28;20058;-72
2023/09/18 08:16:37;;;;;;;14.30;11.85;;;18.80;99.90;;;;;;5032868;28;20056;-72
2023/09/18 08:19:03;;;;;;;15.25;10.88;;;18.70;99.90;;;;;;5033797;28;20151;-72
2023/09/18 08:21:29;;;;;;;22.58;12.35;;;18.70;99.90;;;;;;5033817;28;20046;-72
2023/09/18 08:23:55;;;;;;;13.32;12.02;;;18.80;99.90;;;;;;5033514;28;20076;-72
2023/09/18 08:26:22;;;;;;;15.50;12.10;;;18.70;99.90;;;;;;5033658;28;20512;-71
2023/09/18 08:28:48;;;;;;;13.40;11.27;;;18.70;99.90;;;;;;5033529;28;20049;-72
2023/09/18 08:31:16;;;;;;;14.50;12.10;;;18.70;99.90;;;;;;5033578;28;20041;-72
2023/09/18 08:33:43;;;;;;;17.73;12.88;;;18.80;99.90;;;;;;5033125;28;20057;-72
2023/09/18 08:36:09;;;;;;;12.82;11.52;;;18.80;99.90;;;;;;5033181;28;20049;-72
2023/09/18 08:38:35;;;;;;;12.88;10.73;;;18.80;99.90;;;;;;5033093;28;20045;-72
2023/09/18 08:41:01;;;;;;;13.30;11.23;;;18.90;99.90;;;;;;5033558;28;20052;-71
2023/09/18 08:43:31;;;;;;;12.55;10.32;;;18.70;99.90;;;;;;5033223;28;20058;-72
2023/09/18 08:46:02;;;;;;;11.73;10.55;;;18.80;99.90;;;;;;5033343;28;20454;-71
2023/09/18 08:48:35;;;;;;;15.07;10.07;;;18.90;99.90;;;;;;5032198;28;20057;-71
2023/09/18 08:51:05;;;;;;;12.07;10.88;;;18.80;99.90;;;;;;5033188;28;20045;-72
2023/09/18 08:53:32;;;;;;;14.63;11.05;;;18.90;99.90;;;;;;5031868;28;20106;-72
2023/09/18 08:56:03;;;;;;;12.48;11.13;;;19.00;99.90;;;;;;5033254;28;20046;-72
2023/09/18 08:58:37;;;;;;;12.30;10.95;;;19.10;99.90;;;;;;5032887;28;20041;-71
2023/09/18 09:01:03;;;;;;;12.70;11.35;;;19.20;99.90;;;;;;5031858;28;20088;-74
2023/09/18 09:03:30;;;;;;;12.77;11.38;;;19.20;99.90;;;;;;5032092;28;20089;-71
2023/09/18 09:06:00;;;;;;;15.18;11.40;;;19.20;99.90;;;;;;5031545;28;20088;-71
2023/09/18 09:08:28;;;;;;;14.05;12.60;;;19.40;99.90;;;;;;5033009;28;20045;-71
2023/09/18 09:10:54;;;;;;;13.32;11.98;;;19.20;99.90;;;;;;5032545;28;20088;-73
2023/09/18 09:13:25;;;;;;;13.32;11.90;;;19.30;99.90;;;;;;5031669;28;20470;-72
2023/09/18 09:15:54;;;;;;;12.98;11.60;;;19.20;99.90;;;;;;5032801;28;20535;-72
2023/09/18 09:18:20;;;;;;;16.70;12.85;;;19.20;99.90;;;;;;5032783;28;20049;-72
2023/09/18 09:20:59;;;;;;;14.00;12.55;;;19.20;99.90;;;;;;5032812;28;20052;-72
2023/09/18 09:23:29;;;;;;;13.27;11.90;;;19.20;99.90;;;;;;5033019;28;20128;-72
2023/09/18 09:26:13;;;;;;;16.02;14.25;;;19.20;99.90;;;;;;5032579;28;20051;-72
2023/09/18 09:28:39;;;;;;;18.20;13.60;;;19.20;99.90;;;;;;5032899;28;20065;-73
2023/09/18 09:31:05;;;;;;;19.55;15.18;;;19.30;99.90;;;;;;5032466;28;20576;-73
2023/09/18 09:33:31;;;;;;;19.63;15.25;;;19.20;99.90;;;;;;5032533;28;20111;-74
2023/09/18 09:35:57;;;;;;;18.80;15.27;;;19.20;99.90;;;;;;5032483;28;20143;-72
2023/09/18 09:38:34;;;;;;;20.27;15.38;;;19.30;99.90;;;;;;5032383;28;20046;-73
2023/09/18 09:41:00;;;;;;;20.90;15.85;;;19.40;99.90;;;;;;5032867;28;20045;-73
2023/09/18 09:43:30;;;;;;;20.88;15.55;;;19.50;99.90;;;;;;5031569;28;20560;-72
2023/09/18 09:46:02;;;;;;;20.95;16.48;;;19.50;99.90;;;;;;5032810;28;20367;-73
2023/09/18 09:48:31;;;;;;;20.05;16.63;;;19.70;99.90;;;;;;5032386;28;20092;-72
2023/09/18 09:51:00;;;;;;;21.70;16.48;;;19.70;99.90;;;;;;5032626;28;20125;-73
2023/09/18 09:53:50;;;;;;;18.23;15.27;;;19.80;99.90;;;;;;5032171;28;20056;-72
2023/09/18 09:56:21;;;;;;;18.38;16.20;;;19.90;99.90;;;;;;5032971;28;20049;-73
2023/09/18 09:59:11;;;;;;;20.58;16.88;;;19.90;99.90;;;;;;5032379;28;20041;-72
2023/09/18 10:01:38;;;;;;;19.67;16.88;;;20.20;99.90;;;;;;5033203;28;20060;-73
2023/09/18 10:04:18;;;;;;;19.92;16.75;;;20.10;99.90;;;;;;5032725;28;20045;-71
2023/09/18 10:06:47;;;;;;;19.15;17.00;;;20.20;99.90;;;;;;5015154;28;20055;-71
2023/09/18 10:09:15;;;;;;;19.08;15.57;;;20.20;99.90;;;;;;5032163;28;20048;-70
2023/09/18 10:11:45;;;;;;;20.33;16.90;;;20.40;99.90;;;;;;5032736;28;20096;-71
2023/09/18 10:14:29;;;;;;;19.80;15.48;;;20.50;99.90;;;;;;5031890;28;20099;-71
2023/09/18 10:16:55;;;;;;;20.35;15.95;;;20.50;99.90;;;;;;5032232;28;20053;-71
2023/09/18 10:19:37;;;;;;;21.25;16.08;;;20.70;99.90;;;;;;5031224;28;20124;-71
2023/09/18 10:22:16;;;;;;;17.98;15.05;;;20.70;99.90;;;;;;5032411;28;20041;-70
2023/09/18 10:24:47;;;;;;;23.42;15.77;;;20.80;99.90;;;;;;5035314;28;20056;-71
2023/09/18 10:27:14;;;;;;;18.40;14.63;;;21.10;99.90;;;;;;5036156;28;20045;-72
2023/09/18 10:29:41;;;;;;;19.65;15.82;;;21.20;99.90;;;;;;5035134;28;20168;-73
2023/09/18 10:32:08;;;;;;;20.65;15.20;;;21.60;99.90;;;;;;5034492;28;20061;-71
2023/09/18 10:34:34;;;;;;;15.88;13.30;;;21.70;99.90;;;;;;5035796;28;20045;-71
2023/09/18 10:37:06;;;;;;;14.90;13.45;;;21.80;99.90;;;;;;5035388;28;20482;-75
2023/09/18 10:39:35;;;;;;;13.98;12.57;;;22.00;99.90;;;;;;5035830;28;20046;-73
2023/09/18 10:42:03;;;;;;;14.10;11.77;;;22.00;99.90;;;;;;5036215;28;20045;-71
2023/09/18 10:44:31;;;;;;;11.95;10.18;;;22.10;99.90;;;;;;5035627;28;20053;-71
2023/09/18 10:46:58;;;;;;;15.75;11.98;;;22.10;99.90;;;;;;5035575;28;20104;-73
2023/09/18 10:49:25;;;;;;;12.40;10.70;;;22.00;99.90;;;;;;5035974;28;20048;-71
2023/09/18 10:51:54;;;;;;;12.40;9.18;;;21.90;99.90;;;;;;5034336;28;20053;-73
2023/09/18 10:54:24;;;;;;;10.48;9.27;;;22.10;99.90;;;;;;5035308;28;20048;-73
2023/09/18 10:56:51;;;;;;;13.25;9.50;;;22.20;99.90;;;;;;5035514;28;20474;-71
2023/09/18 10:59:17;;;;;;;12.25;9.55;;;22.30;99.90;;;;;;5034024;28;20610;-71
2023/09/18 11:01:44;;;;;;;9.77;8.57;;;22.40;99.90;;;;;;5035024;28;20049;-71
2023/09/18 11:04:10;;;;;;;9.57;6.97;;;22.40;99.90;;;;;;5035023;28;20519;-71
2023/09/18 11:06:54;;;;;;;10.63;7.57;;;22.40;99.90;;;;;;5034967;28;20049;-71
2023/09/18 11:09:28;;;;;;;9.32;7.88;;;22.30;99.90;;;;;;5034827;28;20037;-71
2023/09/18 11:12:03;;;;;;;8.32;6.53;;;22.30;99.90;;;;;;5034817;28;20045;-71
2023/09/18 11:14:49;;;;;;;6.95;6.25;;;22.20;99.90;;;;;;5035557;28;20122;-72
2023/09/18 11:17:37;;;;;;;9.07;6.03;;;22.00;99.90;;;;;;5034841;28;20486;-71
2023/09/18 11:20:17;;;;;;;7.50;6.10;;;22.00;99.90;;;;;;5034666;28;20057;-72
2023/09/18 11:22:58;;;;;;;6.72;6.13;;;22.00;99.90;;;;;;5034926;28;20056;-71
2023/09/18 11:25:37;;;;;;;7.30;6.43;;;21.90;99.90;;;;;;5035057;28;20081;-71
2023/09/18 11:28:08;;;;;;;9.25;6.93;;;21.90;99.90;;;;;;5033684;28;20049;-72
2023/09/18 11:30:36;;;;;;;8.43;7.15;;;21.80;99.90;;;;;;5035056;28;20045;-72
2023/09/18 11:33:08;;;;;;;7.82;6.95;;;21.80;99.90;;;;;;5033817;28;20049;-72
2023/09/18 11:35:35;;;;;;;8.13;7.25;;;21.60;99.90;;;;;;5033982;28;20466;-72
2023/09/18 11:38:09;;;;;;;8.27;6.75;;;21.40;99.90;;;;;;5034323;28;20114;-72
2023/09/18 11:40:40;;;;;;;7.57;6.10;;;21.60;99.90;;;;;;5034841;28;20042;-72
2023/09/18 11:43:23;;;;;;;7.20;6.50;;;21.70;99.90;;;;;;5034393;28;20054;-71
2023/09/18 11:45:51;;;;;;;7.45;6.13;;;21.90;99.90;;;;;;5034440;28;20049;-72
2023/09/18 11:48:18;;;;;;;7.07;6.47;;;22.00;99.90;;;;;;5034495;28;20050;-73
2023/09/18 11:50:44;;;;;;;7.07;6.13;;;21.90;99.90;;;;;;5034133;28;20042;-73
2023/09/18 11:53:12;;;;;;;6.00;5.50;;;21.90;99.90;;;;;;5032775;28;20045;-73
2023/09/18 11:55:39;;;;;;;8.35;6.65;;;21.80;99.90;;;;;;5034446;28;20089;-73
2023/09/18 11:58:09;;;;;;;6.75;5.63;;;21.70;99.90;;;;;;5034363;28;20144;-74
2023/09/18 12:00:35;;;;;;;7.03;6.18;;;21.70;99.90;;;;;;5032783;28;20049;-74
2023/09/18 12:03:24;;;;;;;7.22;6.63;;;21.70;99.90;;;;;;5034001;28;20053;-73
2023/09/18 12:06:01;;;;;;;9.00;6.15;;;21.60;99.90;;;;;;5034304;28;20085;-74
2023/09/18 12:08:29;;;;;;;9.50;6.80;;;21.60;99.90;;;;;;5033776;28;20041;-74
2023/09/18 12:10:55;;;;;;;8.45;6.68;;;21.80;99.90;;;;;;5034580;28;20118;-74
2023/09/18 12:13:21;;;;;;;6.78;6.10;;;21.90;99.90;;;;;;5033882;28;20502;-74
2023/09/18 12:15:49;;;;;;;6.97;6.28;;;22.00;99.90;;;;;;5033152;28;20049;-73
2023/09/18 12:18:16;;;;;;;6.60;5.60;;;22.10;99.90;;;;;;5033606;28;20053;-72
2023/09/18 12:20:46;;;;;;;6.18;5.57;;;22.30;99.90;;;;;;5034094;28;20081;-72
2023/09/18 12:23:12;;;;;;;6.25;5.68;;;22.50;99.90;;;;;;5033542;28;20056;-73
2023/09/18 12:25:39;;;;;;;6.63;5.55;;;22.60;99.90;;;;;;5033654;28;20041;-72
2023/09/18 12:28:07;;;;;;;5.82;5.25;;;22.60;99.90;;;;;;5032797;28;20120;-73
2023/09/18 12:30:33;;;;;;;7.65;5.35;;;22.70;99.90;;;;;;5016522;28;20063;-72
2023/09/18 12:32:59;;;;;;;5.97;5.30;;;22.80;99.90;;;;;;5033877;28;20100;-72
2023/09/18 12:35:29;;;;;;;6.43;5.75;;;22.70;99.90;;;;;;5033692;28;20053;-72